createdAt,value
2022-11-20T00:02:10.591Z,-4.24
2022-11-20T00:04:40.628Z,-4.20
2022-11-20T00:07:09.811Z,-4.22
2022-11-20T00:09:40.113Z,-4.26
2022-11-20T00:12:09.094Z,-4.24
2022-11-20T00:14:38.122Z,-4.26
2022-11-20T00:17:07.080Z,-4.21
2022-11-20T00:19:36.000Z,-4.20
2022-11-20T00:22:04.895Z,-4.26
2022-11-20T00:24:34.585Z,-4.35
2022-11-20T00:27:07.076Z,-4.31
2022-11-20T00:29:36.114Z,-4.40
2022-11-20T00:32:05.195Z,-4.32
2022-11-20T00:34:34.076Z,-4.35
2022-11-20T00:37:02.976Z,-4.44
2022-11-20T00:39:31.866Z,-4.39
2022-11-20T00:42:00.759Z,-4.45
2022-11-20T00:44:31.101Z,-4.50
2022-11-20T00:46:59.985Z,-4.52
2022-11-20T00:49:28.918Z,-4.55
2022-11-20T00:51:57.955Z,-4.56
2022-11-20T00:54:26.846Z,-4.57
2022-11-20T00:56:55.769Z,-4.60
2022-11-20T00:59:24.626Z,-4.55
2022-11-20T01:01:54.924Z,-4.48
2022-11-20T01:04:23.839Z,-4.54
2022-11-20T01:06:52.753Z,-4.59
2022-11-20T01:09:22.193Z,-4.64
2022-11-20T01:11:51.594Z,-4.67
2022-11-20T01:14:22.196Z,-4.62
2022-11-20T01:16:53.030Z,-4.60
2022-11-20T01:19:25.413Z,-4.62
2022-11-20T01:21:56.310Z,-4.58
2022-11-20T01:24:25.695Z,-4.57
2022-11-20T01:26:54.702Z,-4.61
2022-11-20T01:29:25.556Z,-4.60
2022-11-20T01:31:54.906Z,-4.58
2022-11-20T01:34:26.158Z,-4.65
2022-11-20T01:36:55.485Z,-4.58
2022-11-20T01:39:26.568Z,-4.58
2022-11-20T01:42:14.446Z,-4.51
2022-11-20T01:44:51.131Z,-4.57
2022-11-20T01:47:26.085Z,-4.57
2022-11-20T01:50:01.314Z,-4.59
2022-11-20T01:52:39.040Z,-4.55
2022-11-20T01:55:11.574Z,-4.58
2022-11-20T01:57:42.390Z,-4.58
2022-11-20T02:00:14.410Z,-4.58
2022-11-20T02:02:46.588Z,-4.63
2022-11-20T02:05:25.004Z,-4.67
2022-11-20T02:07:56.670Z,-4.66
2022-11-20T02:10:25.918Z,-4.66
2022-11-20T02:13:12.601Z,-4.62
2022-11-20T02:15:42.641Z,-4.64
2022-11-20T02:18:12.249Z,-4.64
2022-11-20T02:20:44.454Z,-4.58
2022-11-20T02:23:17.698Z,-4.60
2022-11-20T02:25:49.688Z,-4.66
2022-11-20T02:28:19.820Z,-4.71
2022-11-20T02:30:48.723Z,-4.64
2022-11-20T02:33:17.658Z,-4.67
2022-11-20T02:35:48.743Z,-4.68
2022-11-20T02:38:17.673Z,-4.72
2022-11-20T02:40:52.659Z,-4.67
2022-11-20T02:43:24.217Z,-4.68
2022-11-20T02:45:53.109Z,-4.66
2022-11-20T02:48:25.012Z,-4.72
2022-11-20T02:50:54.277Z,-4.68
2022-11-20T02:53:23.194Z,-4.74
2022-11-20T02:55:54.413Z,-4.76
2022-11-20T02:58:23.426Z,-4.71
2022-11-20T03:00:54.729Z,-4.72
2022-11-20T03:03:23.665Z,-4.69
2022-11-20T03:05:52.594Z,-4.69
2022-11-20T03:08:21.515Z,-4.71
2022-11-20T03:10:50.393Z,-4.74
2022-11-20T03:13:20.816Z,-4.75
2022-11-20T03:15:49.705Z,-4.75
2022-11-20T03:18:18.624Z,-4.76
2022-11-20T03:20:47.845Z,-4.77
2022-11-20T03:23:17.069Z,-4.75
2022-11-20T03:25:46.145Z,-4.78
2022-11-20T03:28:15.045Z,-4.76
2022-11-20T03:30:45.356Z,-4.80
2022-11-20T03:33:14.478Z,-4.75
2022-11-20T03:35:43.591Z,-4.76
2022-11-20T03:38:12.569Z,-4.79
2022-11-20T03:40:41.447Z,-4.77
2022-11-20T03:43:12.090Z,-4.80
2022-11-20T03:45:41.035Z,-4.80
2022-11-20T03:48:11.283Z,-4.79
2022-11-20T03:50:40.144Z,-4.83
2022-11-20T03:53:09.158Z,-4.80
2022-11-20T03:55:38.043Z,-4.71
2022-11-20T03:58:07.067Z,-4.79
2022-11-20T04:00:36.344Z,-4.84
2022-11-20T04:03:06.268Z,-4.87
2022-11-20T04:05:36.939Z,-4.82
2022-11-20T04:08:06.277Z,-4.79
2022-11-20T04:10:35.184Z,-4.81
2022-11-20T04:13:04.152Z,-4.80
2022-11-20T04:15:38.113Z,-4.79
2022-11-20T04:18:07.540Z,-4.83
2022-11-20T04:20:38.059Z,-4.82
2022-11-20T04:23:06.974Z,-4.84
2022-11-20T04:25:35.939Z,-4.84
2022-11-20T04:28:05.036Z,-4.90
2022-11-20T04:30:33.950Z,-4.87
2022-11-20T04:33:02.861Z,-4.92
2022-11-20T04:35:31.806Z,-4.91
2022-11-20T04:38:02.105Z,-4.88
2022-11-20T04:40:31.634Z,-4.91
2022-11-20T04:43:00.843Z,-4.91
2022-11-20T04:45:29.756Z,-4.96
2022-11-20T04:47:58.853Z,-4.96
2022-11-20T04:50:27.920Z,-4.99
2022-11-20T04:52:56.791Z,-4.99
2022-11-20T04:55:27.106Z,-4.93
2022-11-20T04:57:56.107Z,-4.94
2022-11-20T05:00:24.998Z,-4.94
2022-11-20T05:02:54.046Z,-4.92
2022-11-20T05:05:23.239Z,-4.90
2022-11-20T05:07:52.146Z,-4.90
2022-11-20T05:10:21.231Z,-4.90
2022-11-20T05:12:51.554Z,-4.92
2022-11-20T05:15:20.851Z,-4.96
2022-11-20T05:17:50.357Z,-4.98
2022-11-20T05:20:19.520Z,-4.95
2022-11-20T05:22:48.469Z,-4.91
2022-11-20T05:25:17.463Z,-4.92
2022-11-20T05:27:46.520Z,-4.92
2022-11-20T05:30:17.664Z,-4.91
2022-11-20T05:32:46.679Z,-4.89
2022-11-20T05:35:15.859Z,-4.91
2022-11-20T05:37:44.793Z,-4.90
2022-11-20T05:40:14.720Z,-4.94
2022-11-20T05:42:44.753Z,-4.92
2022-11-20T05:45:13.709Z,-4.90
2022-11-20T05:47:44.201Z,-4.92
2022-11-20T05:50:13.096Z,-4.94
2022-11-20T05:52:42.245Z,-4.92
2022-11-20T05:55:11.538Z,-4.90
2022-11-20T05:57:40.492Z,-4.93
2022-11-20T06:00:10.772Z,-4.92
2022-11-20T06:02:39.728Z,-4.94
2022-11-20T06:05:10.910Z,-4.92
2022-11-20T06:07:39.913Z,-4.94
2022-11-20T06:10:09.319Z,-4.90
2022-11-20T06:12:38.281Z,-4.85
2022-11-20T06:15:08.369Z,-4.87
2022-11-20T06:17:37.381Z,-4.82
2022-11-20T06:20:07.230Z,-4.77
2022-11-20T06:22:37.796Z,-4.78
2022-11-20T06:25:07.013Z,-4.72
2022-11-20T06:27:36.040Z,-4.67
2022-11-20T06:30:05.545Z,-4.71
2022-11-20T06:32:35.470Z,-4.66
2022-11-20T06:35:04.695Z,-4.66
2022-11-20T06:37:34.013Z,-4.56
2022-11-20T06:40:04.620Z,-4.42
2022-11-20T06:42:34.496Z,-4.37
2022-11-20T06:45:03.630Z,-4.26
2022-11-20T06:47:33.040Z,-4.10
2022-11-20T06:50:02.158Z,-4.08
2022-11-20T06:52:32.605Z,-3.96
2022-11-20T06:55:01.644Z,-3.92
2022-11-20T06:57:32.142Z,-4.09
2022-11-20T07:00:01.205Z,-4.21
2022-11-20T07:02:31.276Z,-4.26
2022-11-20T07:05:00.402Z,-4.33
2022-11-20T07:07:30.572Z,-4.30
2022-11-20T07:09:59.737Z,-4.32
2022-11-20T07:12:28.816Z,-4.14
2022-11-20T07:15:00.228Z,-4.26
2022-11-20T07:17:29.421Z,-4.24
2022-11-20T07:19:58.648Z,-4.19
2022-11-20T07:22:27.925Z,-4.05
2022-11-20T07:24:57.017Z,-4.08
2022-11-20T07:27:26.290Z,-4.25
2022-11-20T07:29:55.649Z,-4.26
2022-11-20T07:32:26.385Z,-4.30
2022-11-20T07:34:55.468Z,-4.30
2022-11-20T07:37:24.566Z,-4.27
2022-11-20T07:39:53.617Z,-4.28
2022-11-20T07:42:22.695Z,-4.29
2022-11-20T07:44:53.827Z,-4.20
2022-11-20T07:47:23.209Z,-4.30
2022-11-20T07:49:53.843Z,-4.23
2022-11-20T07:52:23.349Z,-4.23
2022-11-20T07:54:52.350Z,-4.17
2022-11-20T07:57:25.641Z,-4.10
2022-11-20T07:59:57.477Z,-4.01
2022-11-20T08:02:26.675Z,-4.01
2022-11-20T08:04:57.213Z,-3.99
2022-11-20T08:07:26.321Z,-4.08
2022-11-20T08:09:55.430Z,-4.12
2022-11-20T08:12:41.672Z,-4.14
2022-11-20T08:15:13.502Z,-4.17
2022-11-20T08:17:48.905Z,-4.19
2022-11-20T08:20:27.447Z,-4.17
2022-11-20T08:23:01.001Z,-4.07
2022-11-20T08:25:31.312Z,-3.97
2022-11-20T08:28:04.177Z,-3.84
2022-11-20T08:30:39.962Z,-3.70
2022-11-20T08:33:11.259Z,-3.74
2022-11-20T08:35:42.272Z,-3.88
2022-11-20T08:38:11.920Z,-3.89
2022-11-20T08:40:41.081Z,-3.86
2022-11-20T08:43:10.109Z,-3.85
2022-11-20T08:45:39.290Z,-3.82
2022-11-20T08:48:08.306Z,-3.72
2022-11-20T08:50:37.183Z,-3.69
2022-11-20T08:53:08.030Z,-3.80
2022-11-20T08:55:37.904Z,-3.80
2022-11-20T08:58:06.966Z,-3.70
2022-11-20T09:00:36.827Z,-3.54
2022-11-20T09:03:05.907Z,-3.55
2022-11-20T09:05:35.522Z,-3.49
2022-11-20T09:08:04.576Z,-3.49
2022-11-20T09:10:35.324Z,-3.46
2022-11-20T09:13:05.098Z,-3.49
2022-11-20T09:15:34.867Z,-3.57
2022-11-20T09:18:06.011Z,-3.57
2022-11-20T09:20:34.953Z,-3.48
2022-11-20T09:23:03.877Z,-3.52
2022-11-20T09:25:34.379Z,-3.63
2022-11-20T09:28:03.490Z,-3.55
2022-11-20T09:30:32.499Z,-3.51
2022-11-20T09:33:01.567Z,-3.45
2022-11-20T09:35:30.536Z,-3.46
2022-11-20T09:37:59.534Z,-3.54
2022-11-20T09:40:30.557Z,-3.47
2022-11-20T09:43:06.184Z,-3.36
2022-11-20T09:45:49.573Z,-3.32
2022-11-20T09:48:30.555Z,-3.22
2022-11-20T09:51:07.776Z,-3.25
2022-11-20T09:53:44.990Z,-3.22
2022-11-20T09:56:16.988Z,-3.20
2022-11-20T09:58:55.399Z,-3.30
2022-11-20T10:01:29.226Z,-3.44
2022-11-20T10:04:03.703Z,-3.28
2022-11-20T10:06:34.661Z,-3.28
2022-11-20T10:09:21.353Z,-3.19
2022-11-20T10:12:00.707Z,-3.14
2022-11-20T10:14:41.443Z,-3.12
2022-11-20T10:17:20.711Z,-3.04
2022-11-20T10:20:13.692Z,-2.97
2022-11-20T10:22:56.070Z,-3.07
2022-11-20T10:25:41.905Z,-3.27
2022-11-20T10:28:31.486Z,-3.33
2022-11-20T10:31:05.858Z,-3.34
2022-11-20T10:33:57.150Z,-3.42
2022-11-20T10:36:30.203Z,-3.44
2022-11-20T10:39:06.172Z,-3.49
2022-11-20T10:41:41.204Z,-3.50
2022-11-20T10:44:37.007Z,-3.44
2022-11-20T10:47:08.288Z,-3.31
2022-11-20T10:49:37.312Z,-3.29
2022-11-20T10:52:15.793Z,-3.27
2022-11-20T10:54:52.886Z,-3.28
2022-11-20T10:57:37.803Z,-3.30
2022-11-20T11:00:09.115Z,-3.42
2022-11-20T11:02:44.260Z,-3.44
2022-11-20T11:05:25.166Z,-3.45
2022-11-20T11:07:58.490Z,-3.44
2022-11-20T11:10:35.315Z,-3.40
2022-11-20T11:13:04.367Z,-3.38
2022-11-20T11:15:40.360Z,-3.39
2022-11-20T11:18:13.409Z,-3.53
2022-11-20T11:20:53.180Z,-3.59
2022-11-20T11:23:33.845Z,-3.61
2022-11-20T11:26:04.155Z,-3.68
2022-11-20T11:28:33.912Z,-3.63
2022-11-20T11:31:03.927Z,-3.71
2022-11-20T11:33:35.941Z,-3.80
2022-11-20T11:36:16.780Z,-3.80
2022-11-20T11:38:46.666Z,-3.79
2022-11-20T11:41:19.812Z,-3.74
2022-11-20T11:44:12.033Z,-3.73
2022-11-20T11:46:43.496Z,-3.59
2022-11-20T11:49:20.433Z,-3.60
2022-11-20T11:52:07.270Z,-3.59
2022-11-20T11:54:43.191Z,-3.62
2022-11-20T11:57:19.441Z,-3.75
2022-11-20T12:00:00.088Z,-3.80
2022-11-20T12:02:37.973Z,-3.83
2022-11-20T12:05:20.150Z,-3.84
2022-11-20T12:07:55.028Z,-3.88
2022-11-20T12:10:29.460Z,-3.95
2022-11-20T12:13:04.916Z,-4.00
2022-11-20T12:15:36.501Z,-4.01
2022-11-20T12:18:13.324Z,-4.01
2022-11-20T12:20:50.526Z,-4.05
2022-11-20T12:23:28.737Z,-4.11
2022-11-20T12:26:04.407Z,-4.12
2022-11-20T12:28:48.642Z,-4.13
2022-11-20T12:31:34.259Z,-4.13
2022-11-20T12:34:26.494Z,-4.12
2022-11-20T12:37:06.732Z,-4.27
2022-11-20T12:39:43.521Z,-4.32
2022-11-20T12:43:01.895Z,-4.38
2022-11-20T12:45:56.839Z,-4.38
2022-11-20T12:48:52.947Z,-4.38
2022-11-20T12:51:27.777Z,-4.32
2022-11-20T12:54:14.297Z,-4.30
2022-11-20T12:56:52.362Z,-4.27
2022-11-20T12:59:34.395Z,-4.29
2022-11-20T13:02:21.066Z,-4.28
2022-11-20T13:05:08.304Z,-4.27
2022-11-20T13:07:38.561Z,-4.30
2022-11-20T13:10:20.497Z,-4.30
2022-11-20T13:12:56.169Z,-4.28
2022-11-20T13:15:46.747Z,-4.28
2022-11-20T13:18:16.715Z,-4.29
2022-11-20T13:20:47.806Z,-4.30
2022-11-20T13:23:26.530Z,-4.32
2022-11-20T13:26:08.658Z,-4.29
2022-11-20T13:28:38.442Z,-4.27
2022-11-20T13:31:08.076Z,-4.29
2022-11-20T13:33:39.445Z,-4.35
2022-11-20T13:36:09.919Z,-4.37
2022-11-20T13:38:48.309Z,-4.38
2022-11-20T13:41:32.571Z,-4.38
2022-11-20T13:44:12.631Z,-4.37
2022-11-20T13:46:44.508Z,-4.43
2022-11-20T13:49:23.939Z,-4.43
2022-11-20T13:51:58.246Z,-4.43
2022-11-20T13:55:05.631Z,-4.42
2022-11-20T13:58:05.793Z,-4.45
2022-11-20T14:00:34.955Z,-4.45
2022-11-20T14:03:13.340Z,-4.44
2022-11-20T14:05:51.071Z,-4.42
2022-11-20T14:08:27.710Z,-4.37
2022-11-20T14:11:07.704Z,-4.36
2022-11-20T14:13:38.568Z,-4.37
2022-11-20T14:16:07.821Z,-4.36
2022-11-20T14:18:36.972Z,-4.40
2022-11-20T14:21:06.436Z,-4.39
2022-11-20T14:23:35.552Z,-4.41
2022-11-20T14:26:04.818Z,-4.37
2022-11-20T14:28:33.967Z,-4.36
2022-11-20T14:31:04.670Z,-4.31
2022-11-20T14:33:35.815Z,-4.28
2022-11-20T14:36:06.252Z,-4.32
2022-11-20T14:38:35.653Z,-4.29
2022-11-20T14:41:18.571Z,-4.27
2022-11-20T14:43:52.299Z,-4.28
2022-11-20T14:46:25.472Z,-4.24
2022-11-20T14:48:57.439Z,-4.20
2022-11-20T14:51:32.525Z,-4.23
2022-11-20T14:54:20.241Z,-4.23
2022-11-20T14:56:57.948Z,-4.21
2022-11-20T14:59:28.447Z,-4.22
2022-11-20T15:02:00.862Z,-4.23
2022-11-20T15:04:30.126Z,-4.24
2022-11-20T15:07:01.986Z,-4.29
2022-11-20T15:09:31.229Z,-4.33
2022-11-20T15:12:03.780Z,-4.32
2022-11-20T15:14:35.064Z,-4.37
2022-11-20T15:17:05.999Z,-4.34
2022-11-20T15:19:35.457Z,-4.30
2022-11-20T15:22:04.809Z,-4.31
2022-11-20T15:24:34.377Z,-4.29
2022-11-20T15:27:04.009Z,-4.31
2022-11-20T15:29:33.208Z,-4.32
2022-11-20T15:32:02.171Z,-4.32
2022-11-20T15:34:32.595Z,-4.32
2022-11-20T15:37:01.579Z,-4.36
2022-11-20T15:39:30.723Z,-4.42
2022-11-20T15:41:59.645Z,-4.42
2022-11-20T15:44:28.728Z,-4.38
2022-11-20T15:46:57.767Z,-4.41
2022-11-20T15:49:26.640Z,-4.41
2022-11-20T15:51:56.980Z,-4.43
2022-11-20T15:54:26.546Z,-4.45
2022-11-20T15:56:55.682Z,-4.42
2022-11-20T15:59:24.785Z,-4.39
2022-11-20T16:01:53.793Z,-4.40
2022-11-20T16:04:23.011Z,-4.40
2022-11-20T16:06:52.331Z,-4.42
2022-11-20T16:09:22.735Z,-4.44
2022-11-20T16:11:51.823Z,-4.43
2022-11-20T16:14:38.059Z,-4.42
2022-11-20T16:17:07.281Z,-4.38
2022-11-20T16:19:36.271Z,-4.32
2022-11-20T16:22:05.376Z,-4.32
2022-11-20T16:24:35.980Z,-4.36
2022-11-20T16:27:05.235Z,-4.34
2022-11-20T16:29:34.385Z,-4.34
2022-11-20T16:32:04.588Z,-4.32
2022-11-20T16:34:33.725Z,-4.31
2022-11-20T16:37:02.898Z,-4.30
2022-11-20T16:39:32.134Z,-4.28
2022-11-20T16:42:06.250Z,-4.28
2022-11-20T16:44:35.935Z,-4.32
2022-11-20T16:47:06.123Z,-4.36
2022-11-20T16:49:35.689Z,-4.41
2022-11-20T16:52:05.131Z,-4.39
2022-11-20T16:54:34.597Z,-4.33
2022-11-20T16:57:05.418Z,-4.31
2022-11-20T16:59:34.594Z,-4.29
2022-11-20T17:02:03.797Z,-4.27
2022-11-20T17:04:32.963Z,-4.26
2022-11-20T17:07:07.880Z,-4.27
2022-11-20T17:09:37.169Z,-4.27
2022-11-20T17:12:08.074Z,-4.28
2022-11-20T17:14:37.553Z,-4.30
2022-11-20T17:17:06.883Z,-4.30
2022-11-20T17:19:36.068Z,-4.28
2022-11-20T17:22:06.310Z,-4.30
2022-11-20T17:24:35.564Z,-4.31
2022-11-20T17:27:04.900Z,-4.25
2022-11-20T17:29:40.648Z,-4.24
2022-11-20T17:32:11.234Z,-4.28
2022-11-20T17:34:40.528Z,-4.29
2022-11-20T17:37:09.784Z,-4.34
2022-11-20T17:39:41.026Z,-4.36
2022-11-20T17:42:29.770Z,-4.42
2022-11-20T17:45:00.314Z,-4.45
2022-11-20T17:47:29.324Z,-4.49
2022-11-20T17:49:58.496Z,-4.48
2022-11-20T17:52:27.929Z,-4.44
2022-11-20T17:54:57.874Z,-4.50
2022-11-20T17:57:44.587Z,-4.52
2022-11-20T18:00:17.401Z,-4.53
2022-11-20T18:02:46.453Z,-4.53
2022-11-20T18:05:15.953Z,-4.48
2022-11-20T18:07:45.124Z,-4.42
2022-11-20T18:10:14.571Z,-4.38
2022-11-20T18:12:44.088Z,-4.39
2022-11-20T18:15:14.692Z,-4.42
2022-11-20T18:17:43.871Z,-4.44
2022-11-20T18:20:28.566Z,-4.46
2022-11-20T18:23:00.205Z,-4.49
2022-11-20T18:25:29.236Z,-4.50
2022-11-20T18:27:58.391Z,-4.52
2022-11-20T18:30:28.837Z,-4.52
2022-11-20T18:32:58.375Z,-4.51
2022-11-20T18:35:28.530Z,-4.51
2022-11-20T18:37:58.000Z,-4.55
2022-11-20T18:40:27.144Z,-4.55
2022-11-20T18:43:13.355Z,-4.54
2022-11-20T18:45:43.928Z,-4.52
2022-11-20T18:48:13.127Z,-4.50
2022-11-20T18:50:42.436Z,-4.51
2022-11-20T18:53:11.600Z,-4.51
2022-11-20T18:55:40.903Z,-4.50
2022-11-20T18:58:10.295Z,-4.50
2022-11-20T19:00:39.728Z,-4.37
2022-11-20T19:03:10.385Z,-4.39
2022-11-20T19:05:40.182Z,-4.43
2022-11-20T19:08:09.405Z,-4.45
2022-11-20T19:10:38.714Z,-4.48
2022-11-20T19:13:09.441Z,-4.47
2022-11-20T19:15:38.629Z,-4.48
2022-11-20T19:18:09.434Z,-4.52
2022-11-20T19:20:38.910Z,-4.54
2022-11-20T19:23:08.285Z,-4.59
2022-11-20T19:25:38.407Z,-4.58
2022-11-20T19:28:07.757Z,-4.58
2022-11-20T19:30:36.840Z,-4.66
2022-11-20T19:33:05.946Z,-4.68
2022-11-20T19:35:37.100Z,-4.67
2022-11-20T19:38:06.225Z,-4.69
2022-11-20T19:40:35.417Z,-4.68
2022-11-20T19:43:05.312Z,-4.69
2022-11-20T19:45:34.426Z,-4.72
2022-11-20T19:48:08.032Z,-4.74
2022-11-20T19:50:39.004Z,-4.77
2022-11-20T19:53:08.208Z,-4.77
2022-11-20T19:55:37.275Z,-4.74
2022-11-20T19:58:06.637Z,-4.71
2022-11-20T20:00:35.863Z,-4.70
2022-11-20T20:03:04.937Z,-4.67
2022-11-20T20:05:35.856Z,-4.70
2022-11-20T20:08:06.718Z,-4.72
2022-11-20T20:10:35.803Z,-4.74
2022-11-20T20:13:05.475Z,-4.76
2022-11-20T20:15:34.958Z,-4.77
2022-11-20T20:18:04.063Z,-4.78
2022-11-20T20:20:33.110Z,-4.77
2022-11-20T20:23:02.837Z,-4.76
2022-11-20T20:25:33.326Z,-4.74
2022-11-20T20:28:02.469Z,-4.74
2022-11-20T20:30:32.219Z,-4.70
2022-11-20T20:33:01.311Z,-4.71
2022-11-20T20:35:30.579Z,-4.70
2022-11-20T20:37:59.936Z,-4.68
2022-11-20T20:40:29.025Z,-4.69
2022-11-20T20:42:59.568Z,-4.68
2022-11-20T20:45:28.939Z,-4.66
2022-11-20T20:47:58.438Z,-4.66
2022-11-20T20:50:27.506Z,-4.62
2022-11-20T20:52:57.132Z,-4.58
2022-11-20T20:55:26.237Z,-4.59
2022-11-20T20:57:55.588Z,-4.60
2022-11-20T21:00:27.767Z,-4.59
2022-11-20T21:02:56.841Z,-4.62
2022-11-20T21:05:25.923Z,-4.63
2022-11-20T21:08:12.625Z,-4.58
2022-11-20T21:10:41.870Z,-4.55
2022-11-20T21:13:10.913Z,-4.55
2022-11-20T21:15:42.213Z,-4.53
2022-11-20T21:18:11.308Z,-4.55
2022-11-20T21:20:58.448Z,-4.63
2022-11-20T21:23:27.598Z,-4.62
2022-11-20T21:25:56.754Z,-4.60
2022-11-20T21:28:25.818Z,-4.61
2022-11-20T21:31:04.475Z,-4.62
2022-11-20T21:33:39.242Z,-4.61
2022-11-20T21:36:09.305Z,-4.56
2022-11-20T21:38:40.239Z,-4.54
2022-11-20T21:41:11.142Z,-4.58
2022-11-20T21:43:40.574Z,-4.54
2022-11-20T21:46:12.828Z,-4.54
2022-11-20T21:48:43.268Z,-4.54
2022-11-20T21:51:13.639Z,-4.54
2022-11-20T21:53:42.952Z,-4.54
2022-11-20T21:56:16.447Z,-4.55
2022-11-20T21:58:50.338Z,-4.61
2022-11-20T22:01:22.931Z,-4.60
2022-11-20T22:03:53.776Z,-4.66
2022-11-20T22:06:23.016Z,-4.74
2022-11-20T22:08:52.082Z,-4.76
2022-11-20T22:11:23.105Z,-4.78
2022-11-20T22:14:09.405Z,-4.79
2022-11-20T22:16:40.089Z,-4.79
2022-11-20T22:19:09.353Z,-4.79
2022-11-20T22:21:40.922Z,-4.80
2022-11-20T22:24:13.297Z,-4.80
2022-11-20T22:26:42.368Z,-4.80
2022-11-20T22:29:15.646Z,-4.80
2022-11-20T22:31:46.178Z,-4.79
2022-11-20T22:34:15.918Z,-4.76
2022-11-20T22:36:45.638Z,-4.74
2022-11-20T22:39:14.525Z,-4.73
2022-11-20T22:41:43.467Z,-4.71
2022-11-20T22:44:15.782Z,-4.69
2022-11-20T22:46:46.219Z,-4.70
2022-11-20T22:49:15.130Z,-4.74
2022-11-20T22:51:44.091Z,-4.71
2022-11-20T22:54:13.826Z,-4.75
2022-11-20T22:56:43.000Z,-4.78
2022-11-20T22:59:12.478Z,-4.80
2022-11-20T23:01:41.429Z,-4.77
2022-11-20T23:04:12.428Z,-4.77
2022-11-20T23:06:41.310Z,-4.76
2022-11-20T23:09:11.574Z,-4.73
2022-11-20T23:11:40.672Z,-4.75
2022-11-20T23:14:13.947Z,-4.75
2022-11-20T23:16:43.644Z,-4.76
2022-11-20T23:19:15.331Z,-4.80
2022-11-20T23:21:44.509Z,-4.76
2022-11-20T23:24:13.399Z,-4.73
2022-11-20T23:26:43.355Z,-4.74
2022-11-20T23:29:12.957Z,-4.74
2022-11-20T23:31:41.909Z,-4.76
2022-11-20T23:34:10.822Z,-4.80
2022-11-20T23:36:41.107Z,-4.84
2022-11-20T23:39:10.233Z,-4.88
2022-11-20T23:41:39.749Z,-4.84
2022-11-20T23:44:09.156Z,-4.84
2022-11-20T23:46:38.041Z,-4.88
2022-11-20T23:49:06.904Z,-4.95
2022-11-20T23:51:35.746Z,-4.94
2022-11-20T23:54:06.115Z,-4.95
2022-11-20T23:56:34.966Z,-4.98
2022-11-20T23:59:07.797Z,-5.00
